Time;durP1;ratioP1;P1;durP2;ratioP2;P2;SDS_P1;SDS_P2;PMS_P1;PMS_P2;Temp;Humidity;BMP_temperature;BMP_pressure;BME280_temperature;BME280_humidity;BME280_pressure;Samples;Min_cycle;Max_cycle;Signal;HPM_P1;HPM_P2
2022/08/21 04:20:12;;;;;;;;;3.00;3.00;;;;;;;;6146829;23;46731;-96
2022/08/21 04:22:38;;;;;;;;;3.00;3.00;;;;;;;;6149398;23;45694;-95
2022/08/21 04:34:24;;;;;;;;;4.67;4.67;;;;;;;;6059689;23;45399;-95
2022/08/21 04:37:15;;;;;;;;;;;;;;;;;;;;;
2022/08/21 04:39:53;;;;;;;;;2.33;2.33;;;;;;;;6089399;23;69953;-95
2022/08/21 04:42:40;;;;;;;;;2.67;2.33;;;;;;;;6077764;23;47293;-95
2022/08/21 04:45:20;;;;;;;;;;;;;;;;;;;;;
2022/08/21 06:56:10;;;;;;;;;5.67;5.33;;;;;;;;6329958;22;1488005;-88
2022/08/21 06:58:35;;;;;;;;;5.67;4.67;;;;;;;;6399665;22;45362;-87
2022/08/21 07:01:01;;;;;;;;;6.67;4.00;;;;;;;;6370863;22;45311;-87
2022/08/21 07:03:28;;;;;;;;;6.67;6.00;;;;;;;;6370061;22;46976;-87
2022/08/21 07:05:53;;;;;;;;;3.67;3.67;;;;;;;;6398236;22;45440;-87
2022/08/21 07:08:19;;;;;;;;;4.00;4.00;;;;;;;;6370216;22;45359;-87
2022/08/21 07:10:45;;;;;;;;;5.00;4.00;;;;;;;;6369830;22;45312;-88
2022/08/21 07:13:10;;;;;;;;;5.00;5.00;;;;;;;;6370655;22;48278;-87
2022/08/21 07:15:36;;;;;;;;;6.33;6.00;;;;;;;;6398949;22;45334;-87
2022/08/21 07:18:01;;;;;;;;;6.33;6.33;;;;;;;;6399304;22;45599;-87
2022/08/21 07:20:27;;;;;;;;;7.00;6.00;;;;;;;;6368667;22;45308;-88
2022/08/21 07:22:53;;;;;;;;;4.67;4.67;;;;;;;;6370634;22;48193;-88
2022/08/21 07:25:18;;;;;;;;;4.00;4.00;;;;;;;;6369233;22;45342;-87
2022/08/21 07:27:43;;;;;;;;;6.00;5.00;;;;;;;;6370165;22;45433;-88
2022/08/21 07:30:09;;;;;;;;;7.00;6.00;;;;;;;;6398111;22;45201;-86
2022/08/21 07:32:34;;;;;;;;;4.67;4.33;;;;;;;;6398452;22;46626;-89
2022/08/21 07:34:59;;;;;;;;;6.33;6.33;;;;;;;;6368872;22;45524;-89
2022/08/21 07:37:24;;;;;;;;;7.00;7.00;;;;;;;;6370520;22;45229;-91
2022/08/21 07:39:50;;;;;;;;;8.67;7.67;;;;;;;;6398666;22;45388;-93
2022/08/21 07:42:16;;;;;;;;;8.00;6.33;;;;;;;;6371114;22;46723;-91
2022/08/21 07:44:42;;;;;;;;;5.33;4.00;;;;;;;;6371462;22;45663;-94
2022/08/21 07:47:07;;;;;;;;;5.00;5.00;;;;;;;;6401185;22;45416;-91
2022/08/21 07:49:33;;;;;;;;;7.00;6.33;;;;;;;;6371582;22;45330;-90
2022/08/21 07:51:58;;;;;;;;;5.33;5.33;;;;;;;;6370435;22;47070;-90
2022/08/21 07:54:23;;;;;;;;;8.67;6.67;;;;;;;;6369728;22;45896;-89
2022/08/21 07:56:48;;;;;;;;;6.67;6.67;;;;;;;;6370069;22;45331;-89
2022/08/21 07:59:14;;;;;;;;;4.33;4.33;;;;;;;;6399171;22;45354;-90
2022/08/21 08:01:39;;;;;;;;;7.67;7.67;;;;;;;;6369091;22;47894;-89
2022/08/21 08:04:04;;;;;;;;;5.67;4.33;;;;;;;;6369225;22;45753;-89
2022/08/21 08:06:30;;;;;;;;;6.00;5.33;;;;;;;;6370320;22;45447;-95
2022/08/21 08:11:45;;;;;;;;;7.00;5.33;;;;;;;;6350243;22;46469;-95
2022/08/21 08:14:10;;;;;;;;;8.00;6.00;;;;;;;;6356881;22;45244;-94
2022/08/21 08:16:36;;;;;;;;;6.00;5.67;;;;;;;;6385195;22;45272;-96
2022/08/21 08:21:32;;;;;;;;;8.33;6.33;;;;;;;;6416410;22;45243;-94
2022/08/21 08:23:58;;;;;;;;;6.00;5.00;;;;;;;;6374875;22;45344;-93
2022/08/21 08:26:23;;;;;;;;;4.67;4.00;;;;;;;;6406265;22;45262;-95
2022/08/21 08:28:48;;;;;;;;;5.67;5.00;;;;;;;;6374691;22;45558;-95
2022/08/21 08:31:13;;;;;;;;;5.00;5.00;;;;;;;;6374363;22;47026;-95
2022/08/21 08:33:39;;;;;;;;;4.67;4.00;;;;;;;;6409201;22;45266;-96
2022/08/21 08:36:04;;;;;;;;;5.67;5.00;;;;;;;;6414079;22;45390;-96
2022/08/21 08:38:29;;;;;;;;;6.00;5.00;;;;;;;;6411589;22;45122;-95
2022/08/21 08:41:08;;;;;;;;;4.00;4.00;;;;;;;;6408119;22;46533;-95
2022/08/21 08:43:34;;;;;;;;;6.33;5.67;;;;;;;;6410999;22;45534;-96
2022/08/21 08:46:03;;;;;;;;;5.67;4.33;;;;;;;;6377925;22;45326;-96
2022/08/21 08:48:38;;;;;;;;;6.33;5.00;;;;;;;;6405149;22;45355;-96
2022/08/21 08:51:06;;;;;;;;;3.67;3.67;;;;;;;;6405841;22;45217;-94
2022/08/21 08:53:43;;;;;;;;;5.33;4.33;;;;;;;;6376054;22;45252;-96
2022/08/21 08:56:09;;;;;;;;;6.00;4.67;;;;;;;;6383393;22;45340;-96
2022/08/21 08:58:37;;;;;;;;;4.67;4.00;;;;;;;;6386231;22;45320;-96
2022/08/21 09:01:05;;;;;;;;;3.67;3.33;;;;;;;;6411222;22;45277;-96
2022/08/21 09:03:30;;;;;;;;;4.33;4.33;;;;;;;;6384973;22;45266;-96
2022/08/21 09:06:01;;;;;;;;;5.67;3.33;;;;;;;;6379847;22;45240;-96
2022/08/21 09:08:42;;;;;;;;;5.00;3.33;;;;;;;;6410641;22;45266;-96
2022/08/21 09:11:15;;;;;;;;;3.00;3.00;;;;;;;;6410662;22;45598;-95
2022/08/21 09:13:41;;;;;;;;;3.33;3.33;;;;;;;;6382872;22;45119;-96
2022/08/21 09:16:09;;;;;;;;;6.33;5.00;;;;;;;;6387027;22;45214;-96
2022/08/21 09:18:43;;;;;;;;;2.33;2.33;;;;;;;;6406078;22;45589;-95
2022/08/21 09:21:14;;;;;;;;;4.33;3.67;;;;;;;;6375193;22;48139;-96
2022/08/21 09:23:55;;;;;;;;;5.67;3.67;;;;;;;;6378714;22;45231;-96
2022/08/21 09:26:23;;;;;;;;;3.00;2.00;;;;;;;;6376243;22;45299;-95
2022/08/21 09:28:52;;;;;;;;;5.00;3.67;;;;;;;;6405555;22;45281;-95
2022/08/21 09:31:28;;;;;;;;;3.00;3.00;;;;;;;;6403671;22;46255;-93
2022/08/21 09:33:57;;;;;;;;;2.00;2.00;;;;;;;;6375688;22;45387;-94
2022/08/21 09:36:31;;;;;;;;;2.00;2.00;;;;;;;;6406851;22;45211;-91
2022/08/21 09:38:56;;;;;;;;;5.00;2.00;;;;;;;;6375461;22;45261;-94
2022/08/21 09:41:27;;;;;;;;;4.00;3.00;;;;;;;;6375710;22;47195;-96
2022/08/21 09:43:53;;;;;;;;;1.67;1.67;;;;;;;;6376957;22;45862;-91
2022/08/21 09:46:23;;;;;;;;;6.00;3.67;;;;;;;;6376456;22;45370;-93
2022/08/21 09:48:49;;;;;;;;;3.00;2.33;;;;;;;;6401539;22;45372;-91
2022/08/21 09:51:17;;;;;;;;;2.00;2.00;;;;;;;;6402251;22;45419;-90
2022/08/21 09:53:45;;;;;;;;;3.00;3.00;;;;;;;;6377986;22;45493;-92
2022/08/21 09:59:20;;;;;;;;;4.67;3.33;;;;;;;;6406546;22;45305;-95
2022/08/21 10:01:48;;;;;;;;;9.00;7.00;;;;;;;;6376779;22;47100;-95
2022/08/21 10:04:13;;;;;;;;;18.33;17.00;;;;;;;;6403091;22;45515;-94
2022/08/21 10:06:39;;;;;;;;;41.67;32.00;;;;;;;;6373642;22;45519;-95
2022/08/21 10:09:13;;;;;;;;;30.00;25.33;;;;;;;;6374365;22;45464;-90
2022/08/21 10:14:33;;;;;;;;;3.33;2.33;;;;;;;;6370334;22;45283;-95
2022/08/21 10:17:06;;;;;;;;;7.00;3.00;;;;;;;;6314982;22;45632;-95
2022/08/21 10:19:40;;;;;;;;;3.33;2.33;;;;;;;;6305629;22;45269;-95
2022/08/21 10:22:34;;;;;;;;;2.00;2.00;;;;;;;;6303823;22;47620;-94
2022/08/21 10:24:59;;;;;;;;;2.00;2.00;;;;;;;;6240658;22;45458;-94
2022/08/21 10:27:31;;;;;;;;;4.00;3.50;;;;;;;;6215414;22;45863;-92
2022/08/21 10:29:59;;;;;;;;;3.33;2.67;;;;;;;;6244794;22;45459;-92
2022/08/21 10:32:43;;;;;;;;;3.33;3.33;;;;;;;;6240645;22;48685;-95
2022/08/21 10:35:08;;;;;;;;;2.00;2.00;;;;;;;;6214252;22;45392;-93
2022/08/21 10:37:34;;;;;;;;;3.33;2.00;;;;;;;;6214006;22;45299;-92
2022/08/21 10:40:01;;;;;;;;;5.00;4.00;;;;;;;;6239088;22;45271;-92
2022/08/21 10:42:38;;;;;;;;;4.33;4.33;;;;;;;;6213026;22;46994;-92
2022/08/21 10:45:18;;;;;;;;;7.33;5.33;;;;;;;;6239672;22;45341;-92
2022/08/21 10:48:10;;;;;;;;;3.67;3.67;;;;;;;;6213529;22;45405;-91
2022/08/21 10:50:47;;;;;;;;;5.33;4.33;;;;;;;;6232481;22;45442;-90
2022/08/21 10:53:12;;;;;;;;;0.00;0.00;;;;;;;;6238654;22;46676;-92
2022/08/21 10:55:43;;;;;;;;;2.00;2.00;;;;;;;;6212204;22;45370;-91
2022/08/21 10:58:10;;;;;;;;;3.67;2.67;;;;;;;;6213462;22;45491;-92
2022/08/21 11:00:54;;;;;;;;;2.00;2.00;;;;;;;;6249145;22;45426;-94
2022/08/21 11:03:28;;;;;;;;;7.00;4.00;;;;;;;;6301882;22;47194;-91
2022/08/21 11:05:56;;;;;;;;;4.00;4.00;;;;;;;;6301770;22;45945;-91
2022/08/21 11:08:52;;;;;;;;;6.00;4.00;;;;;;;;6304813;22;45383;-94
2022/08/21 11:11:29;;;;;;;;;4.00;4.00;;;;;;;;6289469;22;45290;-93
2022/08/21 11:14:09;;;;;;;;;5.33;5.00;;;;;;;;6306586;22;45615;-92
2022/08/21 11:16:43;;;;;;;;;7.33;5.33;;;;;;;;6307909;22;45401;-94
2022/08/21 11:19:22;;;;;;;;;4.33;4.33;;;;;;;;6308685;22;45334;-93
2022/08/21 11:21:53;;;;;;;;;2.67;2.00;;;;;;;;6310891;22;45275;-93
2022/08/21 11:24:38;;;;;;;;;2.00;2.00;;;;;;;;6306186;22;46122;-95
2022/08/21 11:27:22;;;;;;;;;3.00;1.33;;;;;;;;6313409;22;45330;-94
2022/08/21 11:29:50;;;;;;;;;5.00;2.00;;;;;;;;6310233;22;45301;-92
2022/08/21 11:32:18;;;;;;;;;13.67;13.33;;;;;;;;6309641;22;45561;-94
2022/08/21 11:34:57;;;;;;;;;7.67;5.67;;;;;;;;6308912;22;46001;-92
2022/08/21 11:37:30;;;;;;;;;3.67;3.67;;;;;;;;6303752;22;45354;-92
2022/08/21 11:39:55;;;;;;;;;5.00;4.00;;;;;;;;6302364;22;45310;-88
2022/08/21 11:42:23;;;;;;;;;3.67;3.67;;;;;;;;6303705;22;45367;-91
2022/08/21 11:44:51;;;;;;;;;1.33;1.33;;;;;;;;6302938;22;45467;-91
2022/08/21 11:47:40;;;;;;;;;4.00;4.00;;;;;;;;6301395;22;45825;-92
2022/08/21 11:50:16;;;;;;;;;3.33;2.67;;;;;;;;6294768;22;45501;-92
2022/08/21 11:52:51;;;;;;;;;2.00;1.33;;;;;;;;6301725;22;45471;-92
2022/08/21 11:55:26;;;;;;;;;1.00;1.00;;;;;;;;6300140;22;48260;-91
2022/08/21 11:57:58;;;;;;;;;2.67;1.33;;;;;;;;6304210;22;45434;-92
2022/08/21 12:00:31;;;;;;;;;0.00;0.00;;;;;;;;6303232;22;45289;-92
2022/08/21 12:03:05;;;;;;;;;2.67;2.00;;;;;;;;6302079;22;45800;-90
2022/08/21 12:05:33;;;;;;;;;5.67;2.00;;;;;;;;6302651;22;46328;-93
2022/08/21 12:08:10;;;;;;;;;4.00;2.67;;;;;;;;6302089;22;45551;-93
2022/08/21 12:10:39;;;;;;;;;1.00;0.67;;;;;;;;6302526;22;45627;-91
2022/08/21 12:13:11;;;;;;;;;1.00;1.00;;;;;;;;6302127;22;45546;-92
2022/08/21 12:15:36;;;;;;;;;0.67;0.67;;;;;;;;6301330;22;47426;-93
2022/08/21 12:18:03;;;;;;;;;2.00;1.33;;;;;;;;6303536;22;45414;-93
2022/08/21 12:20:29;;;;;;;;;1.67;1.67;;;;;;;;6302140;22;45630;-95
2022/08/21 12:23:01;;;;;;;;;0.33;0.33;;;;;;;;6302579;22;45470;-93
2022/08/21 12:25:35;;;;;;;;;2.67;1.67;;;;;;;;6300196;22;48214;-94
2022/08/21 12:28:09;;;;;;;;;1.33;1.33;;;;;;;;6303533;22;45442;-94
2022/08/21 12:30:34;;;;;;;;;1.00;1.00;;;;;;;;6303820;22;45287;-93
2022/08/21 12:33:01;;;;;;;;;0.00;0.00;;;;;;;;6304140;22;45312;-92
2022/08/21 12:35:37;;;;;;;;;0.00;0.00;;;;;;;;6300289;22;47262;-93
2022/08/21 12:38:18;;;;;;;;;0.00;0.00;;;;;;;;6303745;22;45278;-91
2022/08/21 12:40:54;;;;;;;;;0.00;0.00;;;;;;;;6303081;22;45206;-93
2022/08/21 12:43:25;;;;;;;;;0.00;0.00;;;;;;;;6301868;22;45335;-93
2022/08/21 12:45:50;;;;;;;;;0.00;0.00;;;;;;;;6301404;22;47433;-93
2022/08/21 12:48:22;;;;;;;;;0.00;0.00;;;;;;;;6300845;22;45723;-95
2022/08/21 12:50:50;;;;;;;;;0.00;0.00;;;;;;;;6304700;22;45327;-95
2022/08/21 12:53:23;;;;;;;;;0.00;0.00;;;;;;;;6305412;22;45530;-95
2022/08/21 12:55:49;;;;;;;;;4.00;0.00;;;;;;;;6309453;22;45437;-94
2022/08/21 12:58:21;;;;;;;;;0.00;0.00;;;;;;;;6307001;22;45264;-94
2022/08/21 13:00:51;;;;;;;;;0.33;0.33;;;;;;;;6305193;22;45683;-95
2022/08/21 13:03:16;;;;;;;;;1.33;0.33;;;;;;;;6311189;22;45266;-95
2022/08/21 13:05:42;;;;;;;;;0.00;0.00;;;;;;;;6310792;22;45339;-96
2022/08/21 13:08:10;;;;;;;;;0.00;0.00;;;;;;;;6312106;22;45373;-95
2022/08/21 13:10:36;;;;;;;;;0.00;0.00;;;;;;;;6318380;22;45263;-95
2022/08/21 13:13:03;;;;;;;;;0.00;0.00;;;;;;;;6311829;22;45348;-92
2022/08/21 13:15:30;;;;;;;;;0.00;0.00;;;;;;;;6311299;22;45334;-93
2022/08/21 13:18:01;;;;;;;;;0.00;0.00;;;;;;;;6305763;22;45934;-93
2022/08/21 13:20:28;;;;;;;;;0.67;0.67;;;;;;;;6306245;22;45380;-93
2022/08/21 13:22:53;;;;;;;;;2.00;0.00;;;;;;;;6334454;22;45479;-94
2022/08/21 13:25:20;;;;;;;;;1.00;0.00;;;;;;;;6333496;22;45404;-94
2022/08/21 13:27:57;;;;;;;;;0.00;0.00;;;;;;;;6306520;22;45850;-94
2022/08/21 13:30:22;;;;;;;;;0.00;0.00;;;;;;;;6333910;22;45275;-93
2022/08/21 13:32:49;;;;;;;;;0.00;0.00;;;;;;;;6335124;22;45418;-93
2022/08/21 13:35:26;;;;;;;;;0.00;0.00;;;;;;;;6307028;22;47927;-92
2022/08/21 13:37:53;;;;;;;;;0.00;0.00;;;;;;;;6307773;22;45627;-94
2022/08/21 13:40:21;;;;;;;;;0.00;0.00;;;;;;;;6334483;22;45306;-92
2022/08/21 13:42:48;;;;;;;;;0.00;0.00;;;;;;;;6335292;22;45237;-93
2022/08/21 13:45:27;;;;;;;;;0.00;0.00;;;;;;;;6335744;22;46477;-93
2022/08/21 13:47:53;;;;;;;;;0.00;0.00;;;;;;;;6336227;22;45300;-94
2022/08/21 13:50:20;;;;;;;;;0.00;0.00;;;;;;;;6332838;22;45472;-92
2022/08/21 13:52:47;;;;;;;;;0.00;0.00;;;;;;;;6307424;22;45492;-95
2022/08/21 13:55:15;;;;;;;;;0.00;0.00;;;;;;;;6338381;22;45509;-96
2022/08/21 13:57:41;;;;;;;;;0.00;0.00;;;;;;;;6308382;22;45375;-96
2022/08/21 14:00:14;;;;;;;;;0.00;0.00;;;;;;;;6338361;22;45772;-95
2022/08/21 14:02:44;;;;;;;;;0.00;0.00;;;;;;;;6299825;22;45047;-96
2022/08/21 14:05:26;;;;;;;;;0.00;0.00;;;;;;;;6338885;22;47017;-96
2022/08/21 14:10:28;;;;;;;;;0.00;0.00;;;;;;;;6343621;22;46124;-96
2022/08/21 14:20:39;;;;;;;;;0.00;0.00;;;;;;;;6356134;22;45687;-96
2022/08/21 14:23:04;;;;;;;;;0.00;0.00;;;;;;;;6377587;22;44774;-96
2022/08/21 14:28:14;;;;;;;;;0.00;0.00;;;;;;;;6347558;22;46411;-96
2022/08/21 14:33:20;;;;;;;;;0.00;0.00;;;;;;;;6350262;22;45923;-96
2022/08/21 14:40:49;;;;;;;;;0.00;0.00;;;;;;;;6359894;22;44980;-96
2022/08/21 14:43:15;;;;;;;;;0.00;0.00;;;;;;;;6373614;22;48613;-95
2022/08/21 14:45:40;;;;;;;;;0.00;0.00;;;;;;;;6383070;22;46546;-96
2022/08/21 14:48:07;;;;;;;;;0.00;0.00;;;;;;;;6375392;22;45313;-90
2022/08/21 14:50:32;;;;;;;;;0.00;0.00;;;;;;;;6368574;22;45366;-88
2022/08/21 14:52:57;;;;;;;;;0.00;0.00;;;;;;;;6339236;22;45437;-94
2022/08/21 14:55:23;;;;;;;;;0.00;0.00;;;;;;;;6369291;22;45496;-90
2022/08/21 14:57:50;;;;;;;;;0.00;0.00;;;;;;;;6341133;22;45340;-93
2022/08/21 15:00:17;;;;;;;;;0.00;0.00;;;;;;;;6341011;22;45322;-96
2022/08/21 15:02:43;;;;;;;;;0.00;0.00;;;;;;;;6342507;22;45356;-93
2022/08/21 15:05:08;;;;;;;;;0.00;0.00;;;;;;;;6342911;22;47177;-92
2022/08/21 15:07:33;;;;;;;;;0.00;0.00;;;;;;;;6366582;22;45577;-92
2022/08/21 15:09:59;;;;;;;;;0.67;0.00;;;;;;;;6338380;22;45204;-92
2022/08/21 15:12:27;;;;;;;;;0.00;0.00;;;;;;;;6368227;22;45651;-94
2022/08/21 15:14:52;;;;;;;;;0.00;0.00;;;;;;;;6366443;22;46108;-93
2022/08/21 15:17:18;;;;;;;;;0.00;0.00;;;;;;;;6338727;22;45322;-90
2022/08/21 15:19:43;;;;;;;;;2.00;0.00;;;;;;;;6339387;22;45355;-94
2022/08/21 15:22:08;;;;;;;;;0.00;0.00;;;;;;;;6367677;22;45365;-93
2022/08/21 15:24:33;;;;;;;;;0.00;0.00;;;;;;;;6338341;22;47171;-90
2022/08/21 15:27:00;;;;;;;;;0.00;0.00;;;;;;;;6338144;22;45349;-89
2022/08/21 15:29:25;;;;;;;;;2.00;0.00;;;;;;;;6337730;22;45287;-90
2022/08/21 15:31:56;;;;;;;;;1.33;0.00;;;;;;;;6336681;22;45956;-87
2022/08/21 15:34:22;;;;;;;;;0.00;0.00;;;;;;;;6365940;22;45481;-91
2022/08/21 15:36:50;;;;;;;;;0.00;0.00;;;;;;;;6342029;22;45582;-96
2022/08/21 15:39:16;;;;;;;;;0.00;0.00;;;;;;;;6350090;22;44657;-96
2022/08/21 15:41:42;;;;;;;;;0.00;0.00;;;;;;;;6363581;22;45241;-96
2022/08/21 15:44:14;;;;;;;;;0.00;0.00;;;;;;;;6313674;22;47195;-95
2022/08/21 15:46:40;;;;;;;;;0.00;0.00;;;;;;;;6310615;22;45613;-96
2022/08/21 15:51:40;;;;;;;;;0.00;0.00;;;;;;;;6375468;22;45319;-95
2022/08/21 15:54:06;;;;;;;;;1.00;0.00;;;;;;;;6346807;22;47013;-92
2022/08/21 15:56:36;;;;;;;;;0.00;0.00;;;;;;;;6338475;22;45363;-93
2022/08/21 16:01:36;;;;;;;;;0.00;0.00;;;;;;;;6360886;22;45289;-93
2022/08/21 16:04:04;;;;;;;;;0.00;0.00;;;;;;;;6349569;22;47150;-96
2022/08/21 16:06:32;;;;;;;;;1.00;0.00;;;;;;;;6349543;22;45812;-95
2022/08/21 16:08:57;;;;;;;;;0.00;0.00;;;;;;;;6340687;22;45764;-93
2022/08/21 16:11:22;;;;;;;;;0.00;0.00;;;;;;;;6338762;22;45574;-91
2022/08/21 16:13:49;;;;;;;;;0.00;0.00;;;;;;;;6339605;22;48066;-93
2022/08/21 16:16:19;;;;;;;;;0.00;0.00;;;;;;;;6371036;22;45677;-96
2022/08/21 16:18:45;;;;;;;;;0.00;0.00;;;;;;;;6345836;22;45590;-95
2022/08/21 16:21:11;;;;;;;;;0.00;0.00;;;;;;;;6344569;22;45401;-95
2022/08/21 16:23:37;;;;;;;;;0.00;0.00;;;;;;;;6346351;22;46892;-96
2022/08/21 16:26:03;;;;;;;;;0.67;0.00;;;;;;;;6359376;22;45171;-96
2022/08/21 16:28:33;;;;;;;;;0.00;0.00;;;;;;;;6362121;22;44760;-96
2022/08/21 16:30:58;;;;;;;;;0.00;0.00;;;;;;;;6325200;22;45331;-96
2022/08/21 16:33:34;;;;;;;;;0.33;0.00;;;;;;;;6355742;22;47110;-96
2022/08/21 16:36:02;;;;;;;;;0.00;0.00;;;;;;;;6387416;22;45137;-96
2022/08/21 16:40:58;;;;;;;;;0.00;0.00;;;;;;;;6359074;22;46034;-96
2022/08/21 16:45:56;;;;;;;;;0.00;0.00;;;;;;;;6371138;22;45209;-96
2022/08/21 16:51:06;;;;;;;;;0.00;0.00;;;;;;;;6328758;22;46090;-96
2022/08/21 16:53:32;;;;;;;;;0.33;0.00;;;;;;;;6296624;22;47635;-95
2022/08/21 16:55:57;;;;;;;;;0.00;0.00;;;;;;;;6312516;22;45201;-96
2022/08/21 16:58:25;;;;;;;;;0.33;0.33;;;;;;;;6311384;22;45280;-95
2022/08/21 17:00:50;;;;;;;;;2.00;1.00;;;;;;;;6308064;22;45400;-96
2022/08/21 17:05:52;;;;;;;;;0.00;0.00;;;;;;;;6346944;22;44978;-95
2022/08/21 17:08:17;;;;;;;;;0.00;0.00;;;;;;;;6319303;22;45495;-95
2022/08/21 17:10:44;;;;;;;;;0.00;0.00;;;;;;;;6341042;22;45387;-92
2022/08/21 17:13:09;;;;;;;;;1.00;1.00;;;;;;;;6366534;22;46356;-94
2022/08/21 17:15:44;;;;;;;;;0.00;0.00;;;;;;;;6337163;22;45331;-96
2022/08/21 17:18:11;;;;;;;;;1.00;0.67;;;;;;;;6340506;22;45367;-94
2022/08/21 17:20:37;;;;;;;;;2.33;1.00;;;;;;;;6337974;22;45433;-93
2022/08/21 17:23:02;;;;;;;;;0.00;0.00;;;;;;;;6371711;22;45260;-92
2022/08/21 17:25:28;;;;;;;;;0.00;0.00;;;;;;;;6339721;22;45390;-96
2022/08/21 17:27:53;;;;;;;;;1.67;1.67;;;;;;;;6338125;22;45367;-91
2022/08/21 17:30:19;;;;;;;;;2.33;0.00;;;;;;;;6338714;22;45369;-90
2022/08/21 17:32:45;;;;;;;;;2.00;1.00;;;;;;;;6365316;22;45749;-88
2022/08/21 17:35:11;;;;;;;;;3.00;1.33;;;;;;;;6363927;22;45301;-92
2022/08/21 17:37:37;;;;;;;;;2.33;1.00;;;;;;;;6336964;22;45512;-91
2022/08/21 17:40:06;;;;;;;;;2.00;2.00;;;;;;;;6316209;22;45611;-91
2022/08/21 17:42:32;;;;;;;;;0.67;0.67;;;;;;;;6303302;22;46362;-89
2022/08/21 17:44:57;;;;;;;;;2.33;2.00;;;;;;;;6300443;22;45643;-91
2022/08/21 17:47:23;;;;;;;;;2.00;2.00;;;;;;;;6301876;22;45267;-91
2022/08/21 17:49:48;;;;;;;;;1.00;1.00;;;;;;;;6301725;22;45336;-91
2022/08/21 17:52:13;;;;;;;;;1.00;1.00;;;;;;;;6302569;22;45379;-90
2022/08/21 17:54:39;;;;;;;;;0.00;0.00;;;;;;;;6301271;22;45736;-89
2022/08/21 17:57:05;;;;;;;;;2.00;1.33;;;;;;;;6305098;22;45313;-90
2022/08/21 17:59:31;;;;;;;;;0.00;0.00;;;;;;;;6301153;22;45360;-93
2022/08/21 18:02:00;;;;;;;;;4.33;1.33;;;;;;;;6301882;22;46362;-93
2022/08/21 18:04:26;;;;;;;;;1.33;1.00;;;;;;;;6304490;22;45594;-93
2022/08/21 18:06:55;;;;;;;;;3.00;1.67;;;;;;;;6300648;22;45269;-93
2022/08/21 18:09:21;;;;;;;;;1.00;1.00;;;;;;;;6302797;22;45453;-96
2022/08/21 18:11:47;;;;;;;;;3.00;1.00;;;;;;;;6301159;22;47581;-89
2022/08/21 18:14:12;;;;;;;;;2.00;2.00;;;;;;;;6301551;22;45584;-91
2022/08/21 18:16:38;;;;;;;;;3.67;1.00;;;;;;;;6300737;22;45932;-94
2022/08/21 18:19:06;;;;;;;;;1.67;1.00;;;;;;;;6301704;22;45361;-91
2022/08/21 18:21:31;;;;;;;;;2.00;1.00;;;;;;;;6300573;22;47289;-92
2022/08/21 18:23:57;;;;;;;;;2.00;1.00;;;;;;;;6300575;22;45504;-91
2022/08/21 18:26:30;;;;;;;;;1.00;1.00;;;;;;;;6301370;22;45305;-90
2022/08/21 18:28:59;;;;;;;;;2.00;1.00;;;;;;;;6303702;22;45262;-92
2022/08/21 18:31:25;;;;;;;;;2.00;2.00;;;;;;;;6301304;22;48359;-92
2022/08/21 18:33:51;;;;;;;;;1.00;1.00;;;;;;;;6302146;22;45328;-95
2022/08/21 18:36:16;;;;;;;;;1.67;1.67;;;;;;;;6300422;22;45308;-92
2022/08/21 18:38:41;;;;;;;;;1.00;1.00;;;;;;;;6304275;22;45270;-93
2022/08/21 18:41:07;;;;;;;;;3.00;3.00;;;;;;;;6306367;22;45415;-94
2022/08/21 18:43:32;;;;;;;;;0.00;0.00;;;;;;;;6302257;22;45306;-94
2022/08/21 18:45:57;;;;;;;;;3.00;2.00;;;;;;;;6300945;22;45374;-92
2022/08/21 18:48:22;;;;;;;;;0.00;0.00;;;;;;;;6301092;22;45268;-93
2022/08/21 18:50:48;;;;;;;;;3.00;2.00;;;;;;;;6299881;22;47905;-93
2022/08/21 18:53:14;;;;;;;;;1.00;1.00;;;;;;;;6301358;22;45358;-90
2022/08/21 18:55:40;;;;;;;;;5.00;2.00;;;;;;;;6302334;22;45300;-93
2022/08/21 18:58:06;;;;;;;;;2.00;2.00;;;;;;;;6301941;22;45262;-90
2022/08/21 19:00:34;;;;;;;;;2.67;2.00;;;;;;;;6300332;22;47890;-92
2022/08/21 19:02:59;;;;;;;;;1.67;1.67;;;;;;;;6298953;22;45368;-95
2022/08/21 19:05:25;;;;;;;;;2.67;1.00;;;;;;;;6302633;22;45361;-95
2022/08/21 19:07:51;;;;;;;;;3.00;2.00;;;;;;;;6302536;22;45359;-89
2022/08/21 19:10:17;;;;;;;;;4.67;3.00;;;;;;;;6302378;22;46383;-92
2022/08/21 19:12:43;;;;;;;;;3.67;3.67;;;;;;;;6301283;22;45347;-88
2022/08/21 19:15:09;;;;;;;;;4.00;3.33;;;;;;;;6301299;22;45656;-87
2022/08/21 19:17:35;;;;;;;;;3.00;3.00;;;;;;;;6301069;22;45288;-87
2022/08/21 19:20:04;;;;;;;;;5.00;5.00;;;;;;;;6297675;22;48177;-87
2022/08/21 19:22:29;;;;;;;;;2.33;1.00;;;;;;;;6300296;22;45488;-86
2022/08/21 19:24:55;;;;;;;;;3.00;2.00;;;;;;;;6299273;22;45413;-87
2022/08/21 19:27:20;;;;;;;;;0.67;0.67;;;;;;;;6300619;22;45290;-86
2022/08/21 19:29:45;;;;;;;;;3.00;2.00;;;;;;;;6299767;22;47108;-86
2022/08/21 19:32:11;;;;;;;;;1.00;1.00;;;;;;;;6301113;22;45366;-86
2022/08/21 19:34:37;;;;;;;;;1.00;1.00;;;;;;;;6299465;22;45363;-86
2022/08/21 19:37:02;;;;;;;;;1.00;1.00;;;;;;;;6299623;22;45565;-86
2022/08/21 19:39:29;;;;;;;;;2.67;2.00;;;;;;;;6300821;22;46369;-86
2022/08/21 19:41:56;;;;;;;;;5.33;4.00;;;;;;;;6274173;22;45515;-86
2022/08/21 19:44:23;;;;;;;;;4.00;3.00;;;;;;;;6301862;22;45384;-87
2022/08/21 19:46:49;;;;;;;;;3.00;1.00;;;;;;;;6273835;22;45591;-86
2022/08/21 19:49:16;;;;;;;;;2.33;2.00;;;;;;;;6273936;22;47987;-89
2022/08/21 19:51:41;;;;;;;;;2.67;1.67;;;;;;;;6302568;22;45403;-87
2022/08/21 19:54:23;;;;;;;;;3.00;1.33;;;;;;;;6273756;22;45250;-87
2022/08/21 19:56:49;;;;;;;;;3.00;1.33;;;;;;;;6302903;22;45391;-91
2022/08/21 19:59:15;;;;;;;;;3.33;2.00;;;;;;;;6275133;22;48061;-89
2022/08/21 20:01:40;;;;;;;;;3.33;2.00;;;;;;;;6274342;22;45985;-88
2022/08/21 20:04:07;;;;;;;;;3.00;3.00;;;;;;;;6274917;22;45459;-89
2022/08/21 20:06:34;;;;;;;;;2.67;2.00;;;;;;;;6273476;22;45349;-89
2022/08/21 20:08:59;;;;;;;;;6.33;3.33;;;;;;;;6273583;22;47698;-89
2022/08/21 20:11:44;;;;;;;;;3.00;3.00;;;;;;;;6274436;22;45348;-88
2022/08/21 20:14:11;;;;;;;;;4.00;2.67;;;;;;;;6273186;22;45347;-88
2022/08/21 20:16:36;;;;;;;;;3.00;1.67;;;;;;;;6274044;22;45527;-89
2022/08/21 20:19:04;;;;;;;;;3.00;3.00;;;;;;;;6302760;22;45496;-88
2022/08/21 20:21:30;;;;;;;;;3.67;3.00;;;;;;;;6273210;22;45822;-88
2022/08/21 20:23:55;;;;;;;;;2.00;2.00;;;;;;;;6302009;22;45347;-89
2022/08/21 20:26:21;;;;;;;;;2.33;2.00;;;;;;;;6302295;22;45322;-88
2022/08/21 20:28:46;;;;;;;;;3.67;2.00;;;;;;;;6302592;22;45660;-88
2022/08/21 20:31:11;;;;;;;;;1.00;1.00;;;;;;;;6302084;22;45316;-88
2022/08/21 20:33:36;;;;;;;;;5.00;4.00;;;;;;;;6275040;22;45373;-88
2022/08/21 20:42:46;;;;;;;;;3.67;0.00;;;;;;;;6360299;22;45733;-95
2022/08/21 20:45:30;;;;;;;;;3.33;1.33;;;;;;;;6340067;22;45397;-95
2022/08/21 20:48:00;;;;;;;;;1.67;1.67;;;;;;;;6340049;22;45242;-94
2022/08/21 20:50:28;;;;;;;;;3.00;2.00;;;;;;;;6367751;22;46736;-93
2022/08/21 20:53:26;;;;;;;;;4.00;3.00;;;;;;;;6339739;22;45370;-94
2022/08/21 20:55:51;;;;;;;;;0.67;0.33;;;;;;;;6340259;22;45358;-93
2022/08/21 20:58:31;;;;;;;;;3.00;2.00;;;;;;;;6339804;22;45290;-91
2022/08/21 21:00:59;;;;;;;;;2.33;2.33;;;;;;;;6339721;22;47190;-94
2022/08/21 21:03:33;;;;;;;;;1.33;1.33;;;;;;;;6340085;22;45538;-93
2022/08/21 21:06:02;;;;;;;;;3.00;3.00;;;;;;;;6337453;22;45559;-93
2022/08/21 21:08:57;;;;;;;;;2.00;2.00;;;;;;;;6339802;22;45347;-96
2022/08/21 21:11:33;;;;;;;;;2.00;2.00;;;;;;;;6324886;22;47355;-93
2022/08/21 21:14:21;;;;;;;;;3.67;1.00;;;;;;;;6339982;22;45370;-94
2022/08/21 21:16:49;;;;;;;;;4.33;3.33;;;;;;;;6339378;22;45347;-93
2022/08/21 21:19:31;;;;;;;;;1.33;1.00;;;;;;;;6339656;22;45349;-93
2022/08/21 21:22:03;;;;;;;;;3.67;2.33;;;;;;;;6338706;22;47491;-95
2022/08/21 21:24:35;;;;;;;;;4.00;2.00;;;;;;;;6339440;22;45291;-96
2022/08/21 21:27:13;;;;;;;;;3.00;1.67;;;;;;;;6339156;22;45492;-94
2022/08/21 21:29:58;;;;;;;;;2.00;2.00;;;;;;;;6339885;22;45316;-93
2022/08/21 21:32:23;;;;;;;;;3.67;3.00;;;;;;;;6339307;22;48368;-93
2022/08/21 21:34:48;;;;;;;;;3.67;2.00;;;;;;;;6338715;22;45546;-93
2022/08/21 21:37:20;;;;;;;;;2.00;2.00;;;;;;;;6340330;22;45515;-93
2022/08/21 21:39:50;;;;;;;;;2.67;2.00;;;;;;;;6339935;22;45212;-92
2022/08/21 21:42:30;;;;;;;;;4.67;2.67;;;;;;;;6348578;22;46992;-93
2022/08/21 21:45:16;;;;;;;;;3.67;2.00;;;;;;;;6347141;22;45293;-93
2022/08/21 21:47:54;;;;;;;;;3.33;1.33;;;;;;;;6346569;22;45389;-93
2022/08/21 21:50:36;;;;;;;;;2.67;2.00;;;;;;;;6347718;22;45446;-94
2022/08/21 21:53:01;;;;;;;;;4.00;2.00;;;;;;;;6349233;22;47262;-93
2022/08/21 21:55:45;;;;;;;;;5.33;2.33;;;;;;;;6348912;22;45426;-94
2022/08/21 21:58:13;;;;;;;;;4.00;4.00;;;;;;;;6378361;22;45159;-95
2022/08/21 22:00:41;;;;;;;;;4.67;3.00;;;;;;;;6349332;22;45269;-93
2022/08/21 22:03:11;;;;;;;;;2.00;2.00;;;;;;;;6377384;22;46933;-94
2022/08/21 22:05:36;;;;;;;;;4.67;2.33;;;;;;;;6341232;22;45435;-93
2022/08/21 22:08:04;;;;;;;;;3.00;3.00;;;;;;;;6341237;22;45374;-96
2022/08/21 22:10:39;;;;;;;;;2.33;2.33;;;;;;;;6340660;22;45423;-93
2022/08/21 22:13:14;;;;;;;;;1.67;1.67;;;;;;;;6340272;22;47291;-93
2022/08/21 22:15:39;;;;;;;;;3.00;3.00;;;;;;;;6340423;22;45307;-93
2022/08/21 22:18:09;;;;;;;;;3.33;3.33;;;;;;;;6340279;22;45347;-94
2022/08/21 22:20:40;;;;;;;;;2.67;2.67;;;;;;;;6368730;22;45498;-92
2022/08/21 22:23:08;;;;;;;;;3.00;3.00;;;;;;;;6340168;22;48066;-92
2022/08/21 22:25:36;;;;;;;;;2.67;2.67;;;;;;;;6339820;22;45859;-93
2022/08/21 22:28:03;;;;;;;;;3.00;3.00;;;;;;;;6340669;22;45348;-93